sensor_id;sensor_type;location;lat;lon;timestamp;temperature;humidity
8557;DHT22;4316;53.840;10.762;2023-06-26T00:00:42;21.80;99.90
8557;DHT22;4316;53.840;10.762;2023-06-26T00:03:08;21.80;99.90
8557;DHT22;4316;53.840;10.762;2023-06-26T00:05:33;21.70;99.90
8557;DHT22;4316;53.840;10.762;2023-06-26T00:08:00;21.70;99.90
8557;DHT22;4316;53.840;10.762;2023-06-26T00:10:27;21.70;99.90
8557;DHT22;4316;53.840;10.762;2023-06-26T00:12:54;21.70;99.90
8557;DHT22;4316;53.840;10.762;2023-06-26T00:15:20;21.60;99.90
8557;DHT22;4316;53.840;10.762;2023-06-26T00:17:45;21.60;99.90
8557;DHT22;4316;53.840;10.762;2023-06-26T00:20:11;21.70;99.90
8557;DHT22;4316;53.840;10.762;2023-06-26T00:22:39;21.50;99.90
8557;DHT22;4316;53.840;10.762;2023-06-26T00:25:07;21.50;99.90
8557;DHT22;4316;53.840;10.762;2023-06-26T00:27:32;21.40;99.90
8557;DHT22;4316;53.840;10.762;2023-06-26T00:29:58;21.40;99.90
8557;DHT22;4316;53.840;10.762;2023-06-26T00:32:24;21.50;99.90
8557;DHT22;4316;53.840;10.762;2023-06-26T00:34:50;21.30;99.90
8557;DHT22;4316;53.840;10.762;2023-06-26T00:37:16;21.30;99.90
8557;DHT22;4316;53.840;10.762;2023-06-26T00:39:42;21.30;99.90
8557;DHT22;4316;53.840;10.762;2023-06-26T00:42:07;21.30;99.90
8557;DHT22;4316;53.840;10.762;2023-06-26T00:44:33;21.30;99.90
8557;DHT22;4316;53.840;10.762;2023-06-26T00:46:59;21.30;99.90
8557;DHT22;4316;53.840;10.762;2023-06-26T00:49:26;21.20;99.90
8557;DHT22;4316;53.840;10.762;2023-06-26T00:51:53;21.20;99.90
8557;DHT22;4316;53.840;10.762;2023-06-26T00:54:19;21.20;99.90
8557;DHT22;4316;53.840;10.762;2023-06-26T00:56:48;21.10;99.90
8557;DHT22;4316;53.840;10.762;2023-06-26T00:59:14;21.10;99.90
8557;DHT22;4316;53.840;10.762;2023-06-26T01:01:40;21.00;99.90
8557;DHT22;4316;53.840;10.762;2023-06-26T01:04:08;21.10;99.90
8557;DHT22;4316;53.840;10.762;2023-06-26T01:06:47;21.00;99.90
8557;DHT22;4316;53.840;10.762;2023-06-26T01:09:18;21.00;99.90
8557;DHT22;4316;53.840;10.762;2023-06-26T01:11:45;21.00;99.90
8557;DHT22;4316;53.840;10.762;2023-06-26T01:14:11;21.00;99.90
8557;DHT22;4316;53.840;10.762;2023-06-26T01:16:38;21.00;99.90
8557;DHT22;4316;53.840;10.762;2023-06-26T01:19:11;20.90;99.90
8557;DHT22;4316;53.840;10.762;2023-06-26T01:21:42;20.90;99.90
8557;DHT22;4316;53.840;10.762;2023-06-26T01:24:18;20.90;99.90
8557;DHT22;4316;53.840;10.762;2023-06-26T01:26:53;20.90;99.90
8557;DHT22;4316;53.840;10.762;2023-06-26T01:29:19;20.90;99.90
8557;DHT22;4316;53.840;10.762;2023-06-26T01:31:49;20.90;99.90
8557;DHT22;4316;53.840;10.762;2023-06-26T01:34:18;20.80;99.90
8557;DHT22;4316;53.840;10.762;2023-06-26T01:36:45;20.90;99.90
8557;DHT22;4316;53.840;10.762;2023-06-26T01:39:14;20.80;99.90
8557;DHT22;4316;53.840;10.762;2023-06-26T01:41:43;20.80;99.90
8557;DHT22;4316;53.840;10.762;2023-06-26T01:44:41;20.80;99.90
8557;DHT22;4316;53.840;10.762;2023-06-26T01:47:10;20.70;99.90
8557;DHT22;4316;53.840;10.762;2023-06-26T01:57:27;20.60;99.90
8557;DHT22;4316;53.840;10.762;2023-06-26T01:59:55;20.60;99.90
8557;DHT22;4316;53.840;10.762;2023-06-26T02:02:23;20.50;99.90
8557;DHT22;4316;53.840;10.762;2023-06-26T02:04:50;20.50;99.90
8557;DHT22;4316;53.840;10.762;2023-06-26T02:07:16;20.50;99.90
8557;DHT22;4316;53.840;10.762;2023-06-26T02:09:42;20.50;99.90
8557;DHT22;4316;53.840;10.762;2023-06-26T02:12:09;20.40;99.90
8557;DHT22;4316;53.840;10.762;2023-06-26T02:14:35;20.40;99.90
8557;DHT22;4316;53.840;10.762;2023-06-26T02:17:02;20.40;99.90
8557;DHT22;4316;53.840;10.762;2023-06-26T02:19:27;20.30;99.90
8557;DHT22;4316;53.840;10.762;2023-06-26T02:21:54;20.30;99.90
8557;DHT22;4316;53.840;10.762;2023-06-26T02:24:20;20.30;99.90
8557;DHT22;4316;53.840;10.762;2023-06-26T02:26:46;20.30;99.90
8557;DHT22;4316;53.840;10.762;2023-06-26T02:29:12;20.20;99.90
8557;DHT22;4316;53.840;10.762;2023-06-26T02:31:39;20.30;99.90
8557;DHT22;4316;53.840;10.762;2023-06-26T02:34:05;20.30;99.90
8557;DHT22;4316;53.840;10.762;2023-06-26T02:36:33;20.20;99.90
8557;DHT22;4316;53.840;10.762;2023-06-26T02:38:59;20.20;99.90
8557;DHT22;4316;53.840;10.762;2023-06-26T02:41:25;20.20;99.90
8557;DHT22;4316;53.840;10.762;2023-06-26T02:43:51;20.20;99.90
8557;DHT22;4316;53.840;10.762;2023-06-26T02:46:17;20.10;99.90
8557;DHT22;4316;53.840;10.762;2023-06-26T02:48:43;20.20;99.90
8557;DHT22;4316;53.840;10.762;2023-06-26T02:51:09;20.20;99.90
8557;DHT22;4316;53.840;10.762;2023-06-26T02:53:35;20.10;99.90
8557;DHT22;4316;53.840;10.762;2023-06-26T02:56:00;20.00;99.90
8557;DHT22;4316;53.840;10.762;2023-06-26T02:58:27;20.00;99.90
8557;DHT22;4316;53.840;10.762;2023-06-26T03:00:53;20.00;99.90
8557;DHT22;4316;53.840;10.762;2023-06-26T03:03:19;20.00;99.90
8557;DHT22;4316;53.840;10.762;2023-06-26T03:05:45;20.00;99.90
8557;DHT22;4316;53.840;10.762;2023-06-26T03:08:10;20.00;99.90
8557;DHT22;4316;53.840;10.762;2023-06-26T03:10:37;20.00;99.90
8557;DHT22;4316;53.840;10.762;2023-06-26T03:13:03;20.00;99.90
8557;DHT22;4316;53.840;10.762;2023-06-26T03:15:28;20.00;99.90
8557;DHT22;4316;53.840;10.762;2023-06-26T03:17:54;20.00;99.90
8557;DHT22;4316;53.840;10.762;2023-06-26T03:20:24;20.00;99.90
8557;DHT22;4316;53.840;10.762;2023-06-26T03:22:58;20.00;99.90
8557;DHT22;4316;53.840;10.762;2023-06-26T03:25:24;20.00;99.90
8557;DHT22;4316;53.840;10.762;2023-06-26T03:27:58;20.00;99.90
8557;DHT22;4316;53.840;10.762;2023-06-26T03:30:25;20.00;99.90
8557;DHT22;4316;53.840;10.762;2023-06-26T03:32:51;20.00;99.90
8557;DHT22;4316;53.840;10.762;2023-06-26T03:35:17;19.90;99.90
8557;DHT22;4316;53.840;10.762;2023-06-26T03:37:43;19.90;99.90
8557;DHT22;4316;53.840;10.762;2023-06-26T03:40:09;19.90;99.90
8557;DHT22;4316;53.840;10.762;2023-06-26T03:42:36;19.90;99.90
8557;DHT22;4316;53.840;10.762;2023-06-26T03:45:02;19.90;99.90
8557;DHT22;4316;53.840;10.762;2023-06-26T03:47:29;19.80;99.90
8557;DHT22;4316;53.840;10.762;2023-06-26T03:49:55;19.80;99.90
8557;DHT22;4316;53.840;10.762;2023-06-26T03:52:21;19.90;99.90
8557;DHT22;4316;53.840;10.762;2023-06-26T03:54:47;19.90;99.90
8557;DHT22;4316;53.840;10.762;2023-06-26T03:57:15;19.90;99.90
8557;DHT22;4316;53.840;10.762;2023-06-26T03:59:41;19.90;99.90
8557;DHT22;4316;53.840;10.762;2023-06-26T04:02:07;19.90;99.90
8557;DHT22;4316;53.840;10.762;2023-06-26T04:04:32;19.90;99.90
8557;DHT22;4316;53.840;10.762;2023-06-26T04:06:58;19.90;99.90
8557;DHT22;4316;53.840;10.762;2023-06-26T04:09:25;19.90;99.90
8557;DHT22;4316;53.840;10.762;2023-06-26T04:11:51;19.90;99.90
8557;DHT22;4316;53.840;10.762;2023-06-26T04:14:17;19.90;99.90
8557;DHT22;4316;53.840;10.762;2023-06-26T04:16:43;19.90;99.90
8557;DHT22;4316;53.840;10.762;2023-06-26T04:19:09;19.90;99.90
8557;DHT22;4316;53.840;10.762;2023-06-26T04:21:35;19.90;99.90
8557;DHT22;4316;53.840;10.762;2023-06-26T04:24:01;20.00;99.90
8557;DHT22;4316;53.840;10.762;2023-06-26T04:26:27;19.90;99.90
8557;DHT22;4316;53.840;10.762;2023-06-26T04:28:54;19.90;99.90
8557;DHT22;4316;53.840;10.762;2023-06-26T04:31:20;20.00;99.90
8557;DHT22;4316;53.840;10.762;2023-06-26T04:33:46;20.10;99.90
8557;DHT22;4316;53.840;10.762;2023-06-26T04:36:17;20.20;99.90
8557;DHT22;4316;53.840;10.762;2023-06-26T04:38:43;20.20;99.90
8557;DHT22;4316;53.840;10.762;2023-06-26T04:41:09;20.30;99.90
8557;DHT22;4316;53.840;10.762;2023-06-26T04:43:35;20.40;99.90
8557;DHT22;4316;53.840;10.762;2023-06-26T04:46:02;20.40;99.90
8557;DHT22;4316;53.840;10.762;2023-06-26T04:48:28;20.50;99.90
8557;DHT22;4316;53.840;10.762;2023-06-26T04:50:55;20.60;99.90
8557;DHT22;4316;53.840;10.762;2023-06-26T04:53:22;20.70;99.90
8557;DHT22;4316;53.840;10.762;2023-06-26T04:55:49;20.80;99.90
8557;DHT22;4316;53.840;10.762;2023-06-26T04:58:15;20.90;99.90
8557;DHT22;4316;53.840;10.762;2023-06-26T05:00:41;21.00;99.90
8557;DHT22;4316;53.840;10.762;2023-06-26T05:03:09;21.10;99.90
8557;DHT22;4316;53.840;10.762;2023-06-26T05:05:35;21.10;99.90
8557;DHT22;4316;53.840;10.762;2023-06-26T05:08:16;21.20;99.90
8557;DHT22;4316;53.840;10.762;2023-06-26T05:10:43;21.40;99.90
8557;DHT22;4316;53.840;10.762;2023-06-26T05:13:09;21.50;99.90
8557;DHT22;4316;53.840;10.762;2023-06-26T05:15:35;21.70;99.90
8557;DHT22;4316;53.840;10.762;2023-06-26T05:18:00;21.80;99.90
8557;DHT22;4316;53.840;10.762;2023-06-26T05:20:26;21.90;99.90
8557;DHT22;4316;53.840;10.762;2023-06-26T05:22:52;22.10;99.90
8557;DHT22;4316;53.840;10.762;2023-06-26T05:25:18;22.30;99.90
8557;DHT22;4316;53.840;10.762;2023-06-26T05:27:47;22.40;99.90
8557;DHT22;4316;53.840;10.762;2023-06-26T05:30:13;22.60;99.90
8557;DHT22;4316;53.840;10.762;2023-06-26T05:32:40;22.70;99.90
8557;DHT22;4316;53.840;10.762;2023-06-26T05:35:06;22.80;99.90
8557;DHT22;4316;53.840;10.762;2023-06-26T05:37:33;22.90;99.90
8557;DHT22;4316;53.840;10.762;2023-06-26T05:40:00;23.00;99.90
8557;DHT22;4316;53.840;10.762;2023-06-26T05:42:27;23.10;99.90
8557;DHT22;4316;53.840;10.762;2023-06-26T05:44:56;23.20;99.90
8557;DHT22;4316;53.840;10.762;2023-06-26T05:47:22;23.40;99.90
8557;DHT22;4316;53.840;10.762;2023-06-26T05:49:48;23.50;99.90
8557;DHT22;4316;53.840;10.762;2023-06-26T05:52:14;23.60;99.90
8557;DHT22;4316;53.840;10.762;2023-06-26T05:54:40;23.80;99.90
8557;DHT22;4316;53.840;10.762;2023-06-26T05:57:06;23.90;99.90
8557;DHT22;4316;53.840;10.762;2023-06-26T05:59:32;24.00;99.90
8557;DHT22;4316;53.840;10.762;2023-06-26T06:01:58;24.20;99.90
8557;DHT22;4316;53.840;10.762;2023-06-26T06:04:24;24.30;99.90
8557;DHT22;4316;53.840;10.762;2023-06-26T06:06:50;24.40;99.90
8557;DHT22;4316;53.840;10.762;2023-06-26T06:09:15;24.60;99.90
8557;DHT22;4316;53.840;10.762;2023-06-26T06:11:41;24.70;99.90
8557;DHT22;4316;53.840;10.762;2023-06-26T06:14:07;24.80;99.90
8557;DHT22;4316;53.840;10.762;2023-06-26T06:16:33;25.00;99.90
8557;DHT22;4316;53.840;10.762;2023-06-26T06:18:59;25.10;99.90
8557;DHT22;4316;53.840;10.762;2023-06-26T06:21:24;25.30;99.90
8557;DHT22;4316;53.840;10.762;2023-06-26T06:23:50;25.30;99.90
8557;DHT22;4316;53.840;10.762;2023-06-26T06:26:16;25.40;99.90
8557;DHT22;4316;53.840;10.762;2023-06-26T06:28:41;25.50;99.90
8557;DHT22;4316;53.840;10.762;2023-06-26T06:31:07;25.70;99.90
8557;DHT22;4316;53.840;10.762;2023-06-26T06:33:33;25.80;99.90
8557;DHT22;4316;53.840;10.762;2023-06-26T06:35:59;25.90;99.90
8557;DHT22;4316;53.840;10.762;2023-06-26T06:38:25;26.00;99.90
8557;DHT22;4316;53.840;10.762;2023-06-26T06:40:51;26.10;99.90
8557;DHT22;4316;53.840;10.762;2023-06-26T06:43:17;26.30;99.90
8557;DHT22;4316;53.840;10.762;2023-06-26T06:45:42;26.40;99.90
8557;DHT22;4316;53.840;10.762;2023-06-26T06:48:08;26.60;99.90
8557;DHT22;4316;53.840;10.762;2023-06-26T06:50:34;26.70;99.90
8557;DHT22;4316;53.840;10.762;2023-06-26T06:52:59;26.90;99.90
8557;DHT22;4316;53.840;10.762;2023-06-26T06:55:25;27.00;99.90
8557;DHT22;4316;53.840;10.762;2023-06-26T06:57:51;27.00;99.90
8557;DHT22;4316;53.840;10.762;2023-06-26T07:00:17;27.10;99.90
8557;DHT22;4316;53.840;10.762;2023-06-26T07:02:44;27.10;99.90
8557;DHT22;4316;53.840;10.762;2023-06-26T07:05:11;27.50;99.90
8557;DHT22;4316;53.840;10.762;2023-06-26T07:07:38;27.80;99.90
8557;DHT22;4316;53.840;10.762;2023-06-26T07:12:30;27.80;99.90
8557;DHT22;4316;53.840;10.762;2023-06-26T07:14:56;28.00;99.90
8557;DHT22;4316;53.840;10.762;2023-06-26T07:17:22;28.20;99.90
8557;DHT22;4316;53.840;10.762;2023-06-26T07:19:49;28.40;99.90
8557;DHT22;4316;53.840;10.762;2023-06-26T07:22:15;28.40;99.90
8557;DHT22;4316;53.840;10.762;2023-06-26T07:24:41;28.50;99.90
8557;DHT22;4316;53.840;10.762;2023-06-26T07:27:06;28.50;99.90
8557;DHT22;4316;53.840;10.762;2023-06-26T07:29:32;28.70;99.90
8557;DHT22;4316;53.840;10.762;2023-06-26T07:31:58;29.10;99.90
8557;DHT22;4316;53.840;10.762;2023-06-26T07:34:24;29.30;99.90
8557;DHT22;4316;53.840;10.762;2023-06-26T07:36:50;29.40;99.90
8557;DHT22;4316;53.840;10.762;2023-06-26T07:39:15;29.20;99.90
8557;DHT22;4316;53.840;10.762;2023-06-26T07:41:41;29.00;99.90
8557;DHT22;4316;53.840;10.762;2023-06-26T07:44:07;28.90;99.90
8557;DHT22;4316;53.840;10.762;2023-06-26T07:46:33;28.80;99.90
8557;DHT22;4316;53.840;10.762;2023-06-26T07:48:58;28.80;99.90
8557;DHT22;4316;53.840;10.762;2023-06-26T07:51:24;29.00;99.90
8557;DHT22;4316;53.840;10.762;2023-06-26T07:53:50;29.30;99.90
8557;DHT22;4316;53.840;10.762;2023-06-26T07:56:15;29.30;99.90
8557;DHT22;4316;53.840;10.762;2023-06-26T07:58:41;29.60;99.90
8557;DHT22;4316;53.840;10.762;2023-06-26T08:01:07;29.70;99.70
8557;DHT22;4316;53.840;10.762;2023-06-26T08:03:33;29.90;99.60
8557;DHT22;4316;53.840;10.762;2023-06-26T08:05:58;29.40;99.80
8557;DHT22;4316;53.840;10.762;2023-06-26T08:08:24;29.50;99.50
8557;DHT22;4316;53.840;10.762;2023-06-26T08:10:50;29.40;99.40
8557;DHT22;4316;53.840;10.762;2023-06-26T08:13:15;29.50;99.60
8557;DHT22;4316;53.840;10.762;2023-06-26T08:15:41;29.70;99.10
8557;DHT22;4316;53.840;10.762;2023-06-26T08:18:07;30.20;98.90
8557;DHT22;4316;53.840;10.762;2023-06-26T08:20:32;30.40;98.90
8557;DHT22;4316;53.840;10.762;2023-06-26T08:23:01;30.60;99.00
8557;DHT22;4316;53.840;10.762;2023-06-26T08:25:26;30.70;97.90
8557;DHT22;4316;53.840;10.762;2023-06-26T08:27:52;30.70;98.40
8557;DHT22;4316;53.840;10.762;2023-06-26T08:30:19;30.70;98.00
8557;DHT22;4316;53.840;10.762;2023-06-26T08:32:45;30.40;98.50
8557;DHT22;4316;53.840;10.762;2023-06-26T08:35:10;30.70;98.10
8557;DHT22;4316;53.840;10.762;2023-06-26T08:37:36;31.10;97.50
8557;DHT22;4316;53.840;10.762;2023-06-26T08:40:02;30.80;97.50
8557;DHT22;4316;53.840;10.762;2023-06-26T08:42:29;30.80;98.00
8557;DHT22;4316;53.840;10.762;2023-06-26T08:44:55;31.10;98.10
8557;DHT22;4316;53.840;10.762;2023-06-26T08:47:21;31.50;97.60
8557;DHT22;4316;53.840;10.762;2023-06-26T08:52:23;30.40;98.70
8557;DHT22;4316;53.840;10.762;2023-06-26T08:54:56;30.80;98.60
8557;DHT22;4316;53.840;10.762;2023-06-26T08:57:23;31.00;98.50
8557;DHT22;4316;53.840;10.762;2023-06-26T08:59:49;31.00;97.30
8557;DHT22;4316;53.840;10.762;2023-06-26T09:02:15;30.70;97.40
8557;DHT22;4316;53.840;10.762;2023-06-26T09:04:42;31.10;97.60
8557;DHT22;4316;53.840;10.762;2023-06-26T09:07:07;31.60;97.60
8557;DHT22;4316;53.840;10.762;2023-06-26T09:09:33;31.90;97.60
8557;DHT22;4316;53.840;10.762;2023-06-26T09:12:00;32.20;97.30
8557;DHT22;4316;53.840;10.762;2023-06-26T09:14:27;32.30;96.70
8557;DHT22;4316;53.840;10.762;2023-06-26T09:16:53;31.90;96.80
8557;DHT22;4316;53.840;10.762;2023-06-26T09:19:18;32.20;96.90
8557;DHT22;4316;53.840;10.762;2023-06-26T09:21:44;32.10;96.80
8557;DHT22;4316;53.840;10.762;2023-06-26T09:24:10;31.90;97.00
8557;DHT22;4316;53.840;10.762;2023-06-26T09:26:37;31.80;96.90
8557;DHT22;4316;53.840;10.762;2023-06-26T09:29:05;31.80;96.90
8557;DHT22;4316;53.840;10.762;2023-06-26T09:31:32;31.40;97.20
8557;DHT22;4316;53.840;10.762;2023-06-26T09:33:59;31.70;97.10
8557;DHT22;4316;53.840;10.762;2023-06-26T09:36:28;31.50;97.10
8557;DHT22;4316;53.840;10.762;2023-06-26T09:38:54;31.60;97.20
8557;DHT22;4316;53.840;10.762;2023-06-26T09:41:21;31.80;97.30
8557;DHT22;4316;53.840;10.762;2023-06-26T09:43:47;32.10;97.20
8557;DHT22;4316;53.840;10.762;2023-06-26T09:46:24;32.50;97.10
8557;DHT22;4316;53.840;10.762;2023-06-26T09:49:07;32.70;96.90
8557;DHT22;4316;53.840;10.762;2023-06-26T09:51:34;32.30;96.70
8557;DHT22;4316;53.840;10.762;2023-06-26T09:54:01;31.80;96.80
8557;DHT22;4316;53.840;10.762;2023-06-26T09:56:28;31.70;97.20
8557;DHT22;4316;53.840;10.762;2023-06-26T09:58:56;31.60;97.50
8557;DHT22;4316;53.840;10.762;2023-06-26T10:01:23;31.70;97.80
8557;DHT22;4316;53.840;10.762;2023-06-26T10:03:49;31.70;97.30
8557;DHT22;4316;53.840;10.762;2023-06-26T10:06:19;31.70;96.70
8557;DHT22;4316;53.840;10.762;2023-06-26T10:08:45;31.80;96.30
8557;DHT22;4316;53.840;10.762;2023-06-26T10:11:14;31.70;96.30
8557;DHT22;4316;53.840;10.762;2023-06-26T10:13:43;31.40;96.50
8557;DHT22;4316;53.840;10.762;2023-06-26T10:16:12;31.50;96.70
8557;DHT22;4316;53.840;10.762;2023-06-26T10:18:43;31.30;96.40
8557;DHT22;4316;53.840;10.762;2023-06-26T10:21:10;31.00;96.90
8557;DHT22;4316;53.840;10.762;2023-06-26T10:23:39;30.90;97.30
8557;DHT22;4316;53.840;10.762;2023-06-26T10:26:07;30.90;97.50
8557;DHT22;4316;53.840;10.762;2023-06-26T10:28:34;30.90;97.50
8557;DHT22;4316;53.840;10.762;2023-06-26T10:31:02;30.60;97.80
8557;DHT22;4316;53.840;10.762;2023-06-26T10:33:29;30.00;98.50
8557;DHT22;4316;53.840;10.762;2023-06-26T10:36:13;29.40;99.30
8557;DHT22;4316;53.840;10.762;2023-06-26T10:38:52;28.50;99.90
8557;DHT22;4316;53.840;10.762;2023-06-26T10:41:25;28.20;99.90
8557;DHT22;4316;53.840;10.762;2023-06-26T10:44:10;28.10;99.90
8557;DHT22;4316;53.840;10.762;2023-06-26T10:46:53;27.80;99.90
8557;DHT22;4316;53.840;10.762;2023-06-26T10:49:20;27.70;99.90
8557;DHT22;4316;53.840;10.762;2023-06-26T10:51:50;27.70;99.90
8557;DHT22;4316;53.840;10.762;2023-06-26T10:54:20;27.70;99.90
8557;DHT22;4316;53.840;10.762;2023-06-26T10:56:54;27.50;99.90
8557;DHT22;4316;53.840;10.762;2023-06-26T10:59:27;27.30;99.90
8557;DHT22;4316;53.840;10.762;2023-06-26T11:02:01;26.90;99.90
8557;DHT22;4316;53.840;10.762;2023-06-26T11:07:16;26.50;99.90
8557;DHT22;4316;53.840;10.762;2023-06-26T11:10:23;26.00;99.90
8557;DHT22;4316;53.840;10.762;2023-06-26T11:12:53;25.60;99.90
8557;DHT22;4316;53.840;10.762;2023-06-26T11:15:20;25.40;99.90
8557;DHT22;4316;53.840;10.762;2023-06-26T11:17:46;25.20;99.90
8557;DHT22;4316;53.840;10.762;2023-06-26T11:20:15;25.20;99.90
8557;DHT22;4316;53.840;10.762;2023-06-26T11:22:42;25.10;99.90
8557;DHT22;4316;53.840;10.762;2023-06-26T11:25:09;25.00;99.90
8557;DHT22;4316;53.840;10.762;2023-06-26T11:27:42;24.60;99.90
8557;DHT22;4316;53.840;10.762;2023-06-26T11:30:09;24.40;99.90
8557;DHT22;4316;53.840;10.762;2023-06-26T11:32:39;24.20;99.90
8557;DHT22;4316;53.840;10.762;2023-06-26T11:35:05;24.00;99.90
8557;DHT22;4316;53.840;10.762;2023-06-26T11:37:31;23.80;99.90
8557;DHT22;4316;53.840;10.762;2023-06-26T11:39:58;23.60;99.90
8557;DHT22;4316;53.840;10.762;2023-06-26T11:42:23;23.40;99.90
8557;DHT22;4316;53.840;10.762;2023-06-26T11:44:51;23.20;99.90
8557;DHT22;4316;53.840;10.762;2023-06-26T11:47:19;23.10;99.90
8557;DHT22;4316;53.840;10.762;2023-06-26T11:49:46;23.00;99.90
8557;DHT22;4316;53.840;10.762;2023-06-26T11:52:12;22.80;99.90
8557;DHT22;4316;53.840;10.762;2023-06-26T11:54:38;22.70;99.90
8557;DHT22;4316;53.840;10.762;2023-06-26T11:57:04;22.50;99.90
8557;DHT22;4316;53.840;10.762;2023-06-26T11:59:40;22.50;99.90
8557;DHT22;4316;53.840;10.762;2023-06-26T12:02:12;22.40;99.90
8557;DHT22;4316;53.840;10.762;2023-06-26T12:04:41;22.30;99.90
8557;DHT22;4316;53.840;10.762;2023-06-26T12:07:08;22.30;99.90
8557;DHT22;4316;53.840;10.762;2023-06-26T12:09:43;22.40;99.90
8557;DHT22;4316;53.840;10.762;2023-06-26T12:12:10;22.40;99.90
8557;DHT22;4316;53.840;10.762;2023-06-26T12:14:37;22.30;99.90
8557;DHT22;4316;53.840;10.762;2023-06-26T12:17:11;22.30;99.90
8557;DHT22;4316;53.840;10.762;2023-06-26T12:19:47;22.20;99.90
8557;DHT22;4316;53.840;10.762;2023-06-26T12:22:17;22.30;99.90
8557;DHT22;4316;53.840;10.762;2023-06-26T12:24:44;22.40;99.90
8557;DHT22;4316;53.840;10.762;2023-06-26T12:27:12;22.60;99.90
8557;DHT22;4316;53.840;10.762;2023-06-26T12:29:40;22.70;99.90
8557;DHT22;4316;53.840;10.762;2023-06-26T12:32:10;22.80;99.90
8557;DHT22;4316;53.840;10.762;2023-06-26T12:34:37;22.90;99.90
8557;DHT22;4316;53.840;10.762;2023-06-26T12:37:05;23.30;99.90
8557;DHT22;4316;53.840;10.762;2023-06-26T12:39:53;23.30;99.90
8557;DHT22;4316;53.840;10.762;2023-06-26T12:42:22;23.30;99.90
8557;DHT22;4316;53.840;10.762;2023-06-26T12:44:49;23.20;99.90
8557;DHT22;4316;53.840;10.762;2023-06-26T12:47:16;23.30;99.90
8557;DHT22;4316;53.840;10.762;2023-06-26T12:49:44;23.50;99.90
8557;DHT22;4316;53.840;10.762;2023-06-26T12:52:15;23.60;99.90
8557;DHT22;4316;53.840;10.762;2023-06-26T12:54:42;23.80;99.90
8557;DHT22;4316;53.840;10.762;2023-06-26T12:57:09;24.00;99.90
8557;DHT22;4316;53.840;10.762;2023-06-26T12:59:37;24.10;99.90
8557;DHT22;4316;53.840;10.762;2023-06-26T13:02:03;24.20;99.90
8557;DHT22;4316;53.840;10.762;2023-06-26T13:04:29;24.30;99.90
8557;DHT22;4316;53.840;10.762;2023-06-26T13:06:56;24.40;99.90
8557;DHT22;4316;53.840;10.762;2023-06-26T13:09:22;24.40;99.90
8557;DHT22;4316;53.840;10.762;2023-06-26T13:11:49;24.40;99.90
8557;DHT22;4316;53.840;10.762;2023-06-26T13:14:15;24.50;99.90
8557;DHT22;4316;53.840;10.762;2023-06-26T13:16:41;24.50;99.90
8557;DHT22;4316;53.840;10.762;2023-06-26T13:19:07;24.60;99.90
8557;DHT22;4316;53.840;10.762;2023-06-26T13:21:34;24.60;99.90
8557;DHT22;4316;53.840;10.762;2023-06-26T13:24:00;24.80;99.90
8557;DHT22;4316;53.840;10.762;2023-06-26T13:26:26;24.80;99.90
8557;DHT22;4316;53.840;10.762;2023-06-26T13:28:54;24.80;99.90
8557;DHT22;4316;53.840;10.762;2023-06-26T13:31:20;24.90;99.90
8557;DHT22;4316;53.840;10.762;2023-06-26T13:33:47;25.00;99.90
8557;DHT22;4316;53.840;10.762;2023-06-26T13:36:16;25.10;99.90
8557;DHT22;4316;53.840;10.762;2023-06-26T13:38:42;25.10;99.90
8557;DHT22;4316;53.840;10.762;2023-06-26T13:41:08;25.00;99.90
8557;DHT22;4316;53.840;10.762;2023-06-26T13:43:33;25.00;99.90
8557;DHT22;4316;53.840;10.762;2023-06-26T13:46:00;25.00;99.90
8557;DHT22;4316;53.840;10.762;2023-06-26T13:48:26;24.80;99.90
8557;DHT22;4316;53.840;10.762;2023-06-26T13:50:52;24.80;99.90
8557;DHT22;4316;53.840;10.762;2023-06-26T13:53:18;24.90;99.90
8557;DHT22;4316;53.840;10.762;2023-06-26T13:55:44;24.90;99.90
8557;DHT22;4316;53.840;10.762;2023-06-26T13:58:10;24.90;99.90
8557;DHT22;4316;53.840;10.762;2023-06-26T14:00:37;24.80;99.80
8557;DHT22;4316;53.840;10.762;2023-06-26T14:03:03;24.90;99.80
8557;DHT22;4316;53.840;10.762;2023-06-26T14:05:33;24.80;99.60
8557;DHT22;4316;53.840;10.762;2023-06-26T14:08:02;24.60;99.50
8557;DHT22;4316;53.840;10.762;2023-06-26T14:10:28;24.50;99.10
8557;DHT22;4316;53.840;10.762;2023-06-26T14:12:54;24.60;98.90
8557;DHT22;4316;53.840;10.762;2023-06-26T14:15:19;24.80;99.10
8557;DHT22;4316;53.840;10.762;2023-06-26T14:17:45;24.90;98.90
8557;DHT22;4316;53.840;10.762;2023-06-26T14:20:13;24.90;99.10
8557;DHT22;4316;53.840;10.762;2023-06-26T14:22:40;24.80;98.90
8557;DHT22;4316;53.840;10.762;2023-06-26T14:25:10;24.80;99.00
8557;DHT22;4316;53.840;10.762;2023-06-26T14:27:37;24.70;98.80
8557;DHT22;4316;53.840;10.762;2023-06-26T14:30:04;24.60;99.00
8557;DHT22;4316;53.840;10.762;2023-06-26T14:32:30;24.60;98.30
8557;DHT22;4316;53.840;10.762;2023-06-26T14:34:56;24.60;97.70
8557;DHT22;4316;53.840;10.762;2023-06-26T14:37:22;24.50;97.30
8557;DHT22;4316;53.840;10.762;2023-06-26T14:39:48;24.40;97.30
8557;DHT22;4316;53.840;10.762;2023-06-26T14:42:13;24.50;97.70
8557;DHT22;4316;53.840;10.762;2023-06-26T14:44:39;24.40;97.20
8557;DHT22;4316;53.840;10.762;2023-06-26T14:47:05;24.60;97.20
8557;DHT22;4316;53.840;10.762;2023-06-26T14:49:31;24.60;96.60
8557;DHT22;4316;53.840;10.762;2023-06-26T14:51:56;24.80;96.00
8557;DHT22;4316;53.840;10.762;2023-06-26T14:54:22;24.80;95.80
8557;DHT22;4316;53.840;10.762;2023-06-26T14:56:48;24.80;95.10
8557;DHT22;4316;53.840;10.762;2023-06-26T14:59:14;24.80;95.30
8557;DHT22;4316;53.840;10.762;2023-06-26T15:01:40;24.80;95.70
8557;DHT22;4316;53.840;10.762;2023-06-26T15:04:06;24.80;95.20
8557;DHT22;4316;53.840;10.762;2023-06-26T15:06:32;24.70;95.20
8557;DHT22;4316;53.840;10.762;2023-06-26T15:08:58;24.70;95.40
8557;DHT22;4316;53.840;10.762;2023-06-26T15:11:25;24.70;95.40
8557;DHT22;4316;53.840;10.762;2023-06-26T15:13:50;24.60;95.50
8557;DHT22;4316;53.840;10.762;2023-06-26T15:16:16;24.60;95.30
8557;DHT22;4316;53.840;10.762;2023-06-26T15:18:42;24.50;95.90
8557;DHT22;4316;53.840;10.762;2023-06-26T15:21:08;24.50;95.70
8557;DHT22;4316;53.840;10.762;2023-06-26T15:23:34;24.50;96.00
8557;DHT22;4316;53.840;10.762;2023-06-26T15:26:00;24.50;96.10
8557;DHT22;4316;53.840;10.762;2023-06-26T15:28:26;24.60;96.30
8557;DHT22;4316;53.840;10.762;2023-06-26T15:30:51;24.70;96.20
8557;DHT22;4316;53.840;10.762;2023-06-26T15:33:17;24.60;96.10
8557;DHT22;4316;53.840;10.762;2023-06-26T15:35:43;24.50;96.50
8557;DHT22;4316;53.840;10.762;2023-06-26T15:38:09;24.40;96.40
8557;DHT22;4316;53.840;10.762;2023-06-26T15:40:35;24.20;96.20
8557;DHT22;4316;53.840;10.762;2023-06-26T15:43:01;24.10;96.50
8557;DHT22;4316;53.840;10.762;2023-06-26T15:45:26;24.00;96.60
8557;DHT22;4316;53.840;10.762;2023-06-26T15:47:52;24.10;96.80
8557;DHT22;4316;53.840;10.762;2023-06-26T15:50:18;24.10;97.00
8557;DHT22;4316;53.840;10.762;2023-06-26T15:52:48;24.20;97.20
8557;DHT22;4316;53.840;10.762;2023-06-26T15:55:14;24.40;96.80
8557;DHT22;4316;53.840;10.762;2023-06-26T15:57:40;24.40;97.00
8557;DHT22;4316;53.840;10.762;2023-06-26T16:00:07;24.40;97.40